Time;durP1;ratioP1;P1;durP2;ratioP2;P2;SDS_P1;SDS_P2;PMS_P1;PMS_P2;Temp;Humidity;BMP_temperature;BMP_pressure;BME280_temperature;BME280_humidity;BME280_pressure;Samples;Min_cycle;Max_cycle;Signal;HPM_P1;HPM_P2
2023/07/20 00:01:17;;;;;;;1.30;0.90;;;;;;;;;;5030508;28;20132;-38
2023/07/20 00:03:45;;;;;;;0.90;0.90;;;20.90;63.20;;;;;;5026873;28;20050;-37
2023/07/20 00:06:12;;;;;;;1.38;0.98;;;;;;;;;;5010565;28;20503;-37
2023/07/20 00:08:39;;;;;;;1.40;1.00;;;21.20;80.20;;;;;;5010545;28;20525;-36
2023/07/20 00:11:06;;;;;;;1.00;0.88;;;20.40;80.10;;;;;;5010618;28;20138;-39
2023/07/20 00:13:32;;;;;;;1.25;0.88;;;21.70;76.90;;;;;;5010536;28;20402;-40
2023/07/20 00:16:00;;;;;;;1.98;1.05;;;20.00;79.50;;;;;;5012375;28;20132;-35
2023/07/20 00:18:27;;;;;;;1.20;0.98;;;20.80;79.90;;;;;;5030242;28;20132;-39
2023/07/20 00:20:54;;;;;;;0.80;0.80;;;20.90;79.90;;;;;;5015435;28;20144;-39
2023/07/20 00:23:22;;;;;;;1.05;0.90;;;20.80;68.30;;;;;;5010161;28;20125;-35
2023/07/20 00:25:49;;;;;;;0.95;0.90;;;20.60;80.10;;;;;;5010468;28;20064;-39
2023/07/20 00:28:16;;;;;;;1.00;0.80;;;21.00;80.10;;;;;;5010093;28;20128;-39
2023/07/20 00:30:43;;;;;;;1.00;0.90;;;;;;;;;;5010377;28;20046;-35
2023/07/20 00:33:11;;;;;;;1.10;1.00;;;20.70;80.20;;;;;;5009993;28;20575;-39
2023/07/20 00:35:38;;;;;;;0.80;0.80;;;;;;;;;;5010083;28;20052;-39
2023/07/20 00:38:05;;;;;;;0.95;0.90;;;20.60;78.10;;;;;;5009548;28;20046;-36
2023/07/20 00:40:36;;;;;;;1.30;0.80;;;21.90;63.70;;;;;;5009755;28;20080;-35
2023/07/20 00:43:04;;;;;;;1.00;0.90;;;20.40;77.40;;;;;;5009893;28;20132;-38
2023/07/20 00:45:30;;;;;;;1.23;0.93;;;20.90;80.00;;;;;;5010338;28;20060;-40
2023/07/20 00:47:57;;;;;;;0.80;0.80;;;;;;;;;;5009978;28;20136;-37
2023/07/20 00:50:25;;;;;;;1.17;0.98;;;21.40;80.60;;;;;;5009868;28;20048;-36
2023/07/20 00:52:52;;;;;;;1.30;0.90;;;21.10;80.10;;;;;;5020659;28;20058;-39
2023/07/20 00:55:19;;;;;;;0.95;0.90;;;21.20;80.10;;;;;;5010112;28;20046;-40
2023/07/20 00:57:46;;;;;;;0.80;0.80;;;21.20;80.50;;;;;;5009058;28;20153;-38
2023/07/20 01:00:13;;;;;;;0.80;0.80;;;20.70;79.90;;;;;;5009969;28;20133;-38
2023/07/20 01:02:40;;;;;;;1.38;0.90;;;21.30;71.10;;;;;;5009494;28;20137;-36
2023/07/20 01:05:07;;;;;;;2.13;0.80;;;21.00;80.10;;;;;;5009741;28;20130;-39
2023/07/20 01:07:36;;;;;;;0.95;0.85;;;21.50;64.10;;;;;;5009690;28;20053;-35
2023/07/20 01:10:06;;;;;;;0.77;0.73;;;21.40;68.80;;;;;;5010762;28;20045;-35
2023/07/20 01:12:36;;;;;;;1.10;1.00;;;20.90;80.00;;;;;;5014220;28;20132;-39
2023/07/20 01:15:04;;;;;;;0.80;0.80;;;20.90;69.00;;;;;;5029321;28;20056;-36
2023/07/20 01:17:31;;;;;;;0.73;0.68;;;;;;;;;;5029182;28;20133;-36
2023/07/20 01:19:57;;;;;;;0.70;0.70;;;21.30;80.30;;;;;;5027713;28;20136;-39
2023/07/20 01:22:44;;;;;;;1.38;0.98;;;20.80;63.20;;;;;;5029097;28;20057;-37
2023/07/20 01:25:37;;;;;;;1.15;0.85;;;20.70;76.60;;;;;;5029299;28;20049;-36
2023/07/20 01:28:26;;;;;;;1.38;0.82;;;21.00;80.20;;;;;;5027164;28;20128;-38
2023/07/20 01:31:00;;;;;;;0.85;0.85;;;20.70;66.20;;;;;;5032044;28;20053;-39
2023/07/20 01:33:28;;;;;;;0.98;0.85;;;20.90;77.50;;;;;;5029142;28;20124;-39
2023/07/20 01:35:57;;;;;;;1.13;0.93;;;20.70;63.10;;;;;;5028246;28;20063;-35
2023/07/20 01:38:24;;;;;;;1.52;0.98;;;20.60;71.20;;;;;;5028819;28;20058;-39
2023/07/20 01:40:51;;;;;;;0.80;0.80;;;;;;;;;;5029136;28;20140;-33
2023/07/20 01:43:18;;;;;;;1.13;0.82;;;;;;;;;;5028067;28;20060;-35
2023/07/20 01:45:45;;;;;;;0.88;0.80;;;;;;;;;;5010096;28;20073;-34
2023/07/20 01:48:12;;;;;;;0.80;0.80;;;21.20;80.10;;;;;;5009123;28;20137;-40
2023/07/20 01:50:40;;;;;;;0.70;0.70;;;20.80;63.20;;;;;;5008965;28;20513;-35
2023/07/20 01:53:07;;;;;;;0.95;0.85;;;;;;;;;;5023418;28;20049;-35
2023/07/20 01:55:34;;;;;;;0.90;0.90;;;21.20;80.80;;;;;;5029036;28;20056;-36
2023/07/20 01:58:01;;;;;;;1.08;0.80;;;21.20;80.90;;;;;;5028826;28;20401;-36
2023/07/20 02:00:28;;;;;;;1.35;0.93;;;;;;;;;;5026004;28;20041;-39
2023/07/20 02:02:55;;;;;;;1.63;0.93;;;;;;;;;;5008563;28;20129;-35
2023/07/20 02:05:22;;;;;;;1.10;0.90;;;20.70;80.10;;;;;;5008876;28;20133;-36
2023/07/20 02:07:50;;;;;;;1.05;0.90;;;20.50;79.60;;;;;;5009957;28;20586;-38
2023/07/20 02:10:17;;;;;;;0.70;0.70;;;20.40;79.90;;;;;;5029038;28;20051;-35
2023/07/20 02:12:44;;;;;;;0.82;0.82;;;;;;;;;;5031955;28;20065;-33
2023/07/20 02:15:13;;;;;;;1.13;0.90;;;21.30;80.10;;;;;;5032105;28;20132;-40
2023/07/20 02:17:40;;;;;;;0.98;0.80;;;;;;;;;;5027487;28;20053;-38
2023/07/20 02:20:09;;;;;;;1.20;0.93;;;21.30;80.50;;;;;;5012136;28;20045;-38
2023/07/20 02:22:37;;;;;;;0.80;0.80;;;20.90;72.90;;;;;;5012240;28;20114;-39
2023/07/20 02:25:05;;;;;;;1.00;0.90;;;20.60;79.80;;;;;;5031412;28;20049;-35
2023/07/20 02:27:32;;;;;;;0.80;0.80;;;;;;;;;;5031630;28;20132;-36
2023/07/20 02:29:59;;;;;;;1.10;0.85;;;20.90;68.70;;;;;;5031716;28;20050;-40
2023/07/20 02:32:26;;;;;;;0.95;0.90;;;;;;;;;;5031292;28;20133;-40
2023/07/20 02:34:53;;;;;;;1.08;0.90;;;19.90;78.40;;;;;;5031600;28;20056;-37
2023/07/20 02:37:20;;;;;;;0.88;0.88;;;20.30;79.60;;;;;;5031344;28;20136;-36
2023/07/20 02:39:47;;;;;;;1.13;0.85;;;;;;;;;;5031609;28;20041;-36
2023/07/20 02:42:15;;;;;;;0.88;0.80;;;20.70;63.00;;;;;;5031314;28;20124;-38
2023/07/20 02:44:42;;;;;;;1.40;0.93;;;;;;;;;;5012970;28;20505;-38
2023/07/20 02:47:09;;;;;;;0.82;0.80;;;;;;;;;;5011783;28;20521;-34
2023/07/20 02:49:36;;;;;;;0.88;0.80;;;20.70;67.80;;;;;;5011999;28;20049;-39
2023/07/20 02:52:02;;;;;;;0.88;0.80;;;20.50;80.60;;;;;;5017709;28;20125;-38
2023/07/20 02:54:30;;;;;;;1.33;0.90;;;20.70;63.10;;;;;;5031280;28;20136;-36
2023/07/20 02:56:57;;;;;;;3.70;1.05;;;;;;;;;;5029274;28;20405;-34
2023/07/20 02:59:25;;;;;;;1.25;1.00;;;20.30;80.40;;;;;;5011717;28;20125;-37
2023/07/20 03:01:52;;;;;;;1.02;0.90;;;;;;;;;;5011493;28;20054;-39
2023/07/20 03:04:19;;;;;;;1.48;0.80;;;;;;;;;;5011675;28;20527;-35
2023/07/20 03:06:46;;;;;;;0.85;0.80;;;20.80;79.90;;;;;;5029869;28;20050;-36
2023/07/20 03:09:13;;;;;;;2.05;0.90;;;20.60;80.20;;;;;;5031314;28;20125;-37
2023/07/20 03:11:39;;;;;;;0.80;0.80;;;20.50;66.80;;;;;;5031044;28;20564;-37
2023/07/20 03:14:06;;;;;;;0.80;0.80;;;21.60;69.50;;;;;;5030379;28;20120;-38
2023/07/20 03:16:34;;;;;;;1.00;0.90;;;20.30;79.70;;;;;;5030990;28;20561;-37
2023/07/20 03:19:01;;;;;;;0.88;0.80;;;21.60;80.70;;;;;;5030623;28;20137;-39
2023/07/20 03:21:28;;;;;;;1.30;1.10;;;;;;;;;;5031259;28;20132;-37
2023/07/20 03:23:55;;;;;;;1.30;1.00;;;19.60;79.80;;;;;;5031211;28;20049;-39
2023/07/20 03:26:22;;;;;;;0.93;0.90;;;;;;;;;;5031032;28;20124;-36
2023/07/20 03:28:49;;;;;;;0.82;0.80;;;20.50;68.20;;;;;;5030941;28;20053;-38
2023/07/20 03:31:16;;;;;;;1.60;0.90;;;;;;;;;;5029291;28;20052;-39
2023/07/20 03:33:44;;;;;;;1.00;0.80;;;21.50;80.20;;;;;;5030801;28;20053;-37
2023/07/20 03:36:11;;;;;;;1.55;1.10;;;;;;;;;;5030191;28;20124;-39
2023/07/20 03:38:38;;;;;;;1.08;0.73;;;20.70;75.30;;;;;;5030706;28;20451;-38
2023/07/20 03:41:04;;;;;;;0.70;0.70;;;19.80;69.60;;;;;;5030745;28;20132;-36
2023/07/20 03:43:31;;;;;;;1.00;0.90;;;;;;;;;;5030590;28;20128;-36
2023/07/20 03:45:58;;;;;;;1.52;1.00;;;;;;;;;;5028683;28;20049;-36
2023/07/20 03:48:25;;;;;;;0.90;0.90;;;20.30;76.10;;;;;;5015417;28;20076;-37
2023/07/20 03:50:54;;;;;;;1.25;0.90;;;20.30;79.40;;;;;;5029675;28;20133;-40
2023/07/20 03:53:21;;;;;;;0.85;0.75;;;20.50;66.90;;;;;;5030000;28;20683;-39
2023/07/20 03:55:48;;;;;;;1.00;0.90;;;;;;;;;;5030134;28;20049;-39
2023/07/20 03:58:15;;;;;;;0.77;0.77;;;;;;;;;;5030306;28;20050;-34
2023/07/20 04:00:45;;;;;;;1.00;0.90;;;20.70;79.80;;;;;;5030311;28;20045;-36
2023/07/20 04:03:12;;;;;;;0.90;0.85;;;21.00;80.40;;;;;;5010433;28;20133;-37
2023/07/20 04:05:39;;;;;;;1.00;0.90;;;20.90;80.00;;;;;;5011576;28;20410;-36
2023/07/20 04:08:07;;;;;;;1.00;0.90;;;20.80;80.10;;;;;;5010565;28;20054;-40
2023/07/20 04:10:34;;;;;;;0.75;0.75;;;20.40;71.90;;;;;;5010447;28;20414;-37
2023/07/20 04:13:01;;;;;;;1.13;0.80;;;20.40;80.00;;;;;;5010237;28;20133;-37
2023/07/20 04:15:28;;;;;;;1.00;0.90;;;20.30;80.50;;;;;;5010596;28;20129;-38
2023/07/20 04:17:56;;;;;;;1.05;0.95;;;20.60;80.00;;;;;;5010185;28;20406;-38
2023/07/20 04:20:23;;;;;;;1.92;0.90;;;20.60;80.50;;;;;;5011647;28;20042;-38
2023/07/20 04:22:50;;;;;;;0.80;0.80;;;;;;;;;;5027704;28;20053;-34
2023/07/20 04:25:18;;;;;;;1.00;1.00;;;20.20;79.80;;;;;;5029783;28;20521;-37
2023/07/20 04:27:45;;;;;;;1.10;1.00;;;21.00;69.10;;;;;;5029921;28;20132;-38
2023/07/20 04:30:12;;;;;;;1.17;0.98;;;;;;;;;;5030112;28;20045;-35
2023/07/20 04:32:46;;;;;;;1.58;1.05;;;20.40;79.90;;;;;;5028728;28;20050;-31
2023/07/20 04:35:18;;;;;;;0.95;0.90;;;20.40;63.00;;;;;;5029175;28;20048;-31
2023/07/20 04:37:46;;;;;;;1.08;0.90;;;;;;;;;;5028873;28;20132;-34
2023/07/20 04:40:13;;;;;;;1.10;1.00;;;20.20;69.10;;;;;;5029703;28;20132;-35
2023/07/20 04:42:41;;;;;;;1.85;1.10;;;20.80;80.30;;;;;;5029778;28;20064;-31
2023/07/20 04:45:09;;;;;;;1.20;1.00;;;20.40;79.80;;;;;;5029328;28;20302;-31
2023/07/20 04:47:36;;;;;;;0.80;0.80;;;20.40;80.20;;;;;;5029827;28;20049;-31
2023/07/20 04:50:03;;;;;;;1.10;1.00;;;;;;;;;;5029278;28;20081;-34
2023/07/20 04:52:29;;;;;;;1.45;0.95;;;20.70;80.40;;;;;;5028870;28;20118;-31
2023/07/20 04:54:56;;;;;;;1.15;1.00;;;20.20;79.80;;;;;;5029747;28;20132;-31
2023/07/20 04:57:24;;;;;;;1.05;0.90;;;21.30;64.50;;;;;;5029264;28;20075;-31
2023/07/20 04:59:52;;;;;;;1.10;1.00;;;20.60;79.20;;;;;;5029487;28;20049;-32
2023/07/20 05:02:19;;;;;;;1.38;1.00;;;20.00;77.00;;;;;;5028474;28;20045;-31
2023/07/20 05:04:46;;;;;;;0.80;0.80;;;19.50;76.80;;;;;;5029555;28;20064;-31
2023/07/20 05:07:13;;;;;;;0.93;0.90;;;20.00;80.40;;;;;;5029636;28;20049;-35
2023/07/20 05:09:40;;;;;;;1.38;1.05;;;20.40;79.90;;;;;;5029013;28;20061;-31
2023/07/20 05:12:07;;;;;;;0.85;0.80;;;20.10;63.00;;;;;;5029257;28;20077;-31
2023/07/20 05:14:34;;;;;;;1.00;0.90;;;20.50;80.50;;;;;;5029308;28;20514;-31
2023/07/20 05:17:02;;;;;;;0.93;0.90;;;20.10;80.00;;;;;;5017194;28;20149;-31
2023/07/20 05:19:29;;;;;;;0.85;0.85;;;20.40;80.50;;;;;;5008165;28;20056;-31
2023/07/20 05:21:56;;;;;;;1.38;1.00;;;;;;;;;;5009206;28;20049;-34
2023/07/20 05:24:23;;;;;;;1.23;1.08;;;;;;;;;;5008684;28;20136;-33
2023/07/20 05:26:50;;;;;;;1.63;1.05;;;20.60;66.40;;;;;;5009380;28;20056;-33
2023/07/20 05:29:16;;;;;;;0.80;0.80;;;20.70;80.40;;;;;;5009684;28;20053;-31
2023/07/20 05:31:43;;;;;;;1.00;0.90;;;20.50;80.70;;;;;;5009121;28;20580;-31
2023/07/20 05:34:11;;;;;;;0.80;0.80;;;20.40;63.40;;;;;;5025363;28;20053;-34
2023/07/20 05:36:38;;;;;;;1.00;0.90;;;;;;;;;;5028677;28;20053;-36
2023/07/20 05:39:05;;;;;;;1.00;0.90;;;20.80;80.90;;;;;;5029117;28;20056;-31
2023/07/20 05:41:32;;;;;;;1.10;1.00;;;;;;;;;;5028987;28;20053;-32
2023/07/20 05:43:59;;;;;;;2.00;0.77;;;20.10;80.30;;;;;;5028594;28;20100;-31
2023/07/20 05:46:26;;;;;;;1.48;0.95;;;20.30;80.70;;;;;;5028913;28;20129;-31
2023/07/20 05:48:52;;;;;;;0.75;0.75;;;21.20;66.90;;;;;;5027278;28;20141;-33
2023/07/20 05:51:20;;;;;;;1.08;0.98;;;20.40;63.50;;;;;;5009404;28;20042;-31
2023/07/20 05:53:47;;;;;;;1.08;0.93;;;20.70;80.50;;;;;;5028500;28;20080;-31
2023/07/20 05:56:14;;;;;;;0.95;0.80;;;20.70;80.70;;;;;;5029001;28;20057;-31
2023/07/20 05:58:41;;;;;;;1.00;0.90;;;;;;;;;;5028901;28;20136;-32
2023/07/20 06:01:08;;;;;;;0.98;0.90;;;19.20;80.20;;;;;;5028764;28;20081;-31
2023/07/20 06:03:37;;;;;;;0.95;0.93;;;19.70;74.00;;;;;;5028518;28;20132;-31
2023/07/20 06:06:04;;;;;;;1.02;0.95;;;20.50;80.90;;;;;;5026333;28;20045;-31
2023/07/20 06:08:32;;;;;;;1.17;1.00;;;20.00;80.30;;;;;;5009048;28;20060;-31
2023/07/20 06:10:59;;;;;;;1.13;0.90;;;20.60;80.70;;;;;;5008744;28;20125;-31
2023/07/20 06:13:26;;;;;;;0.80;0.80;;;19.80;80.60;;;;;;5008733;28;20129;-31
2023/07/20 06:15:53;;;;;;;0.90;0.90;;;19.60;80.20;;;;;;5009245;28;20054;-31
2023/07/20 06:18:21;;;;;;;1.25;0.80;;;20.60;80.50;;;;;;5008660;28;20473;-31
2023/07/20 06:20:50;;;;;;;2.05;0.93;;;21.20;78.30;;;;;;5009073;28;20070;-31
2023/07/20 06:23:17;;;;;;;0.63;0.63;;;;;;;;;;5013367;28;20061;-36
2023/07/20 06:25:45;;;;;;;1.08;0.70;;;20.80;80.60;;;;;;5028862;28;20124;-31
2023/07/20 06:28:12;;;;;;;1.00;0.90;;;21.40;81.00;;;;;;5028260;28;20145;-31
2023/07/20 06:30:39;;;;;;;0.90;0.90;;;19.30;79.90;;;;;;5028747;28;20124;-31
2023/07/20 06:33:06;;;;;;;0.80;0.80;;;19.90;80.60;;;;;;5028129;28;20500;-32
2023/07/20 06:35:33;;;;;;;1.92;0.90;;;19.60;80.20;;;;;;5027845;28;20053;-32
2023/07/20 06:38:00;;;;;;;1.00;0.90;;;;;;;;;;5027789;28;20478;-36
2023/07/20 06:40:27;;;;;;;1.45;1.15;;;21.20;81.40;;;;;;5027605;28;20049;-31
2023/07/20 06:42:55;;;;;;;1.25;0.80;;;20.30;63.50;;;;;;5028123;28;20129;-30
2023/07/20 06:45:22;;;;;;;1.20;0.80;;;;;;;;;;5028515;28;20057;-35
2023/07/20 06:47:49;;;;;;;1.10;0.80;;;19.40;80.30;;;;;;5028442;28;20530;-31
2023/07/20 06:50:15;;;;;;;0.80;0.80;;;20.50;80.50;;;;;;5028104;28;20045;-31
2023/07/20 06:52:42;;;;;;;1.00;0.90;;;;;;;;;;5028442;28;20056;-34
2023/07/20 06:55:09;;;;;;;1.58;0.90;;;21.50;80.90;;;;;;5029428;28;20557;-31
2023/07/20 06:57:37;;;;;;;1.45;1.00;;;;;;;;;;5020828;28;20076;-35
2023/07/20 07:00:06;;;;;;;2.35;0.90;;;19.70;79.90;;;;;;5011889;28;20049;-31
2023/07/20 07:02:34;;;;;;;1.48;0.90;;;20.60;80.60;;;;;;5011577;28;20448;-31
2023/07/20 07:05:01;;;;;;;1.60;0.93;;;20.30;66.40;;;;;;5011687;28;20050;-33
2023/07/20 07:07:28;;;;;;;1.55;1.00;;;;;;;;;;5011595;28;20045;-36
2023/07/20 07:09:55;;;;;;;1.10;0.90;;;;;;;;;;5011431;28;20054;-35
2023/07/20 07:12:22;;;;;;;1.00;0.80;;;20.40;80.50;;;;;;5025551;28;20045;-30
2023/07/20 07:14:48;;;;;;;1.02;0.88;;;20.00;80.30;;;;;;5015321;28;20128;-31
2023/07/20 07:17:16;;;;;;;1.48;0.88;;;20.90;64.50;;;;;;5011441;28;20136;-33
2023/07/20 07:19:44;;;;;;;0.90;0.80;;;;;;;;;;5011470;28;20060;-34
2023/07/20 07:22:11;;;;;;;2.13;0.90;;;21.40;72.10;;;;;;5010794;28;20817;-34
2023/07/20 07:24:38;;;;;;;0.80;0.80;;;20.70;80.30;;;;;;5011621;28;20049;-32
2023/07/20 07:27:05;;;;;;;1.92;1.00;;;21.00;80.90;;;;;;5011386;28;20054;-31
2023/07/20 07:29:32;;;;;;;1.85;0.70;;;20.70;69.40;;;;;;5011478;28;20130;-31
2023/07/20 07:31:59;;;;;;;0.98;0.90;;;19.90;79.80;;;;;;5019319;28;20121;-32
2023/07/20 07:34:27;;;;;;;1.20;0.88;;;20.30;78.80;;;;;;5019618;28;20092;-31
2023/07/20 07:36:54;;;;;;;0.88;0.88;;;19.90;79.80;;;;;;5019387;28;20045;-31
2023/07/20 07:39:21;;;;;;;1.13;0.90;;;21.40;80.60;;;;;;5019072;28;20504;-32
2023/07/20 07:41:47;;;;;;;1.20;1.10;;;20.20;72.20;;;;;;5019815;28;20155;-32
2023/07/20 07:44:14;;;;;;;1.85;1.00;;;;;;;;;;5014108;28;20528;-36
2023/07/20 07:46:41;;;;;;;2.10;0.93;;;;;;;;;;5018773;28;20053;-32
2023/07/20 07:49:08;;;;;;;1.48;0.90;;;21.40;67.80;;;;;;5030622;28;20536;-34
2023/07/20 07:51:36;;;;;;;1.33;1.00;;;20.80;80.30;;;;;;5030476;28;20553;-31
2023/07/20 07:54:03;;;;;;;1.50;1.00;;;21.40;80.40;;;;;;5021242;28;20137;-31
2023/07/20 07:56:29;;;;;;;1.17;0.95;;;19.40;79.80;;;;;;5027582;28;20052;-31
2023/07/20 07:58:56;;;;;;;2.05;0.98;;;;;;;;;;5022229;28;20410;-35
2023/07/20 08:01:23;;;;;;;1.42;1.02;;;20.30;79.90;;;;;;5021384;28;21578;-31
2023/07/20 08:03:50;;;;;;;1.20;0.90;;;;;;;;;;5019070;28;20125;-33
2023/07/20 08:06:17;;;;;;;1.17;1.00;;;20.50;80.00;;;;;;5019918;28;20045;-31
2023/07/20 08:08:45;;;;;;;1.05;0.80;;;20.70;63.50;;;;;;5019699;28;20049;-33
2023/07/20 08:11:12;;;;;;;0.90;0.80;;;20.50;79.80;;;;;;5018927;28;20129;-31
2023/07/20 08:13:39;;;;;;;0.77;0.77;;;;;;;;;;5015252;28;20125;-35
2023/07/20 08:16:06;;;;;;;2.10;0.90;;;;;;;;;;5017891;28;20521;-32
2023/07/20 08:18:33;;;;;;;0.90;0.90;;;;;;;;;;5013829;28;20133;-37
2023/07/20 08:21:00;;;;;;;1.05;0.80;;;21.10;80.30;;;;;;5010578;28;20046;-31
2023/07/20 08:23:27;;;;;;;1.08;0.98;;;21.80;80.40;;;;;;5010943;28;20137;-32
2023/07/20 08:25:55;;;;;;;1.48;1.00;;;21.20;80.40;;;;;;5030369;28;20045;-31
2023/07/20 08:28:22;;;;;;;1.20;0.80;;;20.40;79.90;;;;;;5030126;28;20132;-31
2023/07/20 08:30:49;;;;;;;1.08;0.90;;;20.50;79.90;;;;;;5030012;28;20476;-41
2023/07/20 08:33:17;;;;;;;2.00;1.13;;;20.60;73.40;;;;;;5029378;28;20132;-39
2023/07/20 08:35:44;;;;;;;1.92;1.13;;;21.90;80.00;;;;;;5029650;28;20574;-40
2023/07/20 08:38:12;;;;;;;2.67;0.90;;;;;;;;;;5029342;28;20054;-40
2023/07/20 08:40:42;;;;;;;5.38;1.05;;;20.60;79.70;;;;;;5027107;28;20048;-40
2023/07/20 08:43:11;;;;;;;1.52;1.10;;;21.00;79.80;;;;;;5019427;28;20110;-39
2023/07/20 08:45:38;;;;;;;1.35;1.00;;;;;;;;;;5029413;28;20566;-36
2023/07/20 08:48:06;;;;;;;2.58;1.20;;;21.90;79.80;;;;;;5029500;28;20053;-39
2023/07/20 08:50:32;;;;;;;1.52;1.10;;;21.20;79.70;;;;;;5021076;28;20046;-38
2023/07/20 08:52:59;;;;;;;2.80;1.02;;;20.80;79.30;;;;;;5020433;28;20053;-39
2023/07/20 08:55:26;;;;;;;2.17;1.00;;;21.00;62.60;;;;;;5019207;28;20593;-39
2023/07/20 08:57:54;;;;;;;1.83;1.00;;;21.50;79.70;;;;;;5018494;28;20042;-40
2023/07/20 09:00:22;;;;;;;2.25;1.13;;;21.30;72.80;;;;;;5014023;28;20050;-41
2023/07/20 09:02:50;;;;;;;1.20;1.00;;;21.70;79.70;;;;;;5009831;28;20128;-41
2023/07/20 09:05:17;;;;;;;1.10;0.90;;;21.40;79.50;;;;;;5009618;28;20129;-41
2023/07/20 09:07:43;;;;;;;1.38;1.02;;;21.30;79.50;;;;;;5009865;28;20104;-41
2023/07/20 09:10:11;;;;;;;1.40;1.08;;;;;;;;;;5009693;28;20104;-36
2023/07/20 09:12:38;;;;;;;1.88;1.20;;;21.50;80.00;;;;;;5009196;28;20074;-41
2023/07/20 09:15:06;;;;;;;1.40;1.20;;;21.00;62.60;;;;;;5010802;28;20053;-41
2023/07/20 09:17:34;;;;;;;1.23;1.10;;;20.60;62.30;;;;;;5009065;28;20141;-39
2023/07/20 09:20:05;;;;;;;2.78;1.10;;;21.00;62.60;;;;;;5009412;28;20060;-39
2023/07/20 09:22:32;;;;;;;2.28;1.10;;;20.40;79.00;;;;;;5009423;28;20443;-40
2023/07/20 09:24:59;;;;;;;1.58;1.10;;;;;;;;;;5009504;28;20056;-41
2023/07/20 09:27:36;;;;;;;1.65;1.20;;;22.20;79.70;;;;;;5009121;28;20060;-41
2023/07/20 09:30:02;;;;;;;2.97;1.20;;;20.90;79.50;;;;;;5010912;28;20054;-39
2023/07/20 09:32:29;;;;;;;2.90;1.30;;;;;;;;;;5009158;28;20406;-39
2023/07/20 09:34:57;;;;;;;2.15;1.20;;;21.50;79.50;;;;;;5009463;28;20447;-41
2023/07/20 09:37:24;;;;;;;2.97;1.30;;;21.00;69.10;;;;;;5019752;28;20132;-40
2023/07/20 09:39:52;;;;;;;1.38;1.13;;;21.10;62.40;;;;;;5019351;28;20125;-41
2023/07/20 09:42:20;;;;;;;1.88;1.27;;;;;;;;;;5017577;28;20042;-39
2023/07/20 09:44:47;;;;;;;1.65;1.20;;;21.50;79.20;;;;;;5015250;28;20069;-41
2023/07/20 09:47:14;;;;;;;1.55;1.10;;;21.00;68.70;;;;;;5016804;28;20084;-39
2023/07/20 09:49:41;;;;;;;3.05;1.48;;;21.00;74.10;;;;;;5016919;28;20491;-39
2023/07/20 09:52:10;;;;;;;2.08;1.27;;;20.90;63.00;;;;;;5019412;28;20041;-37
2023/07/20 09:54:37;;;;;;;3.20;1.25;;;21.30;61.80;;;;;;5019966;28;20054;-39
2023/07/20 09:57:04;;;;;;;2.03;1.20;;;21.40;64.70;;;;;;5017877;28;20073;-39
2023/07/20 09:59:31;;;;;;;3.60;1.27;;;21.70;78.60;;;;;;5018288;28;20050;-36
2023/07/20 10:01:59;;;;;;;2.35;1.20;;;21.40;61.60;;;;;;5018518;28;20124;-35
2023/07/20 10:04:26;;;;;;;2.22;1.13;;;21.60;74.20;;;;;;5018468;28;20514;-39
2023/07/20 10:06:53;;;;;;;1.27;1.10;;;21.80;74.30;;;;;;5038485;28;20480;-38
2023/07/20 10:09:21;;;;;;;2.78;1.17;;;22.60;78.50;;;;;;5029000;28;20048;-38
2023/07/20 10:11:50;;;;;;;1.60;1.20;;;21.60;61.40;;;;;;5025969;28;20128;-35
2023/07/20 10:14:20;;;;;;;2.00;1.20;;;21.90;77.90;;;;;;5018964;28;20053;-37
2023/07/20 10:16:51;;;;;;;1.40;1.20;;;21.50;68.40;;;;;;5051949;28;20046;-38
2023/07/20 10:19:19;;;;;;;1.83;1.30;;;;;;;;;;5037084;28;20058;-35
2023/07/20 10:21:48;;;;;;;2.85;1.10;;;21.60;61.40;;;;;;5018903;28;20124;-36
2023/07/20 10:24:15;;;;;;;3.03;1.33;;;21.90;78.00;;;;;;5018535;28;20053;-38
2023/07/20 10:26:43;;;;;;;1.77;1.10;;;20.40;77.20;;;;;;5016530;28;20153;-37
2023/07/20 10:29:10;;;;;;;1.90;1.25;;;21.50;77.80;;;;;;5028590;28;20132;-38
2023/07/20 10:31:37;;;;;;;2.13;1.17;;;21.60;61.30;;;;;;5031725;28;20041;-38
2023/07/20 10:34:04;;;;;;;2.13;1.38;;;21.80;69.50;;;;;;5031571;28;20085;-38
2023/07/20 10:36:30;;;;;;;2.42;1.20;;;21.70;77.70;;;;;;5027635;28;20136;-40
2023/07/20 10:38:57;;;;;;;2.25;1.27;;;21.60;61.20;;;;;;5020642;28;20141;-38
2023/07/20 10:41:28;;;;;;;1.80;1.40;;;22.80;78.30;;;;;;5011662;28;20411;-40
2023/07/20 10:44:00;;;;;;;1.10;1.00;;;21.60;61.30;;;;;;5017695;28;20494;-34
2023/07/20 10:46:44;;;;;;;1.48;1.23;;;22.70;78.20;;;;;;5020494;28;20134;-40
2023/07/20 10:49:12;;;;;;;1.48;1.10;;;;;;;;;;5022714;28;20046;-36
2023/07/20 10:51:42;;;;;;;2.65;1.20;;;20.80;77.60;;;;;;5022391;28;20069;-38
2023/07/20 10:54:10;;;;;;;1.80;1.10;;;21.40;77.60;;;;;;5020404;28;20132;-37
2023/07/20 10:56:37;;;;;;;2.85;1.10;;;;;;;;;;5010594;28;20046;-35
2023/07/20 10:59:18;;;;;;;1.50;1.05;;;21.60;61.30;;;;;;5011776;28;20057;-35
2023/07/20 11:01:45;;;;;;;1.70;1.00;;;21.60;61.20;;;;;;5011213;28;20049;-38
2023/07/20 11:04:12;;;;;;;3.33;1.40;;;;;;;;;;5011083;28;20477;-36
2023/07/20 11:06:40;;;;;;;1.75;1.20;;;22.00;77.60;;;;;;5011008;28;20144;-38
2023/07/20 11:09:10;;;;;;;2.35;1.30;;;21.90;69.60;;;;;;5011320;28;20490;-38
2023/07/20 11:11:37;;;;;;;1.00;0.90;;;22.10;69.10;;;;;;5011215;28;20107;-39
2023/07/20 11:14:07;;;;;;;1.42;1.17;;;20.60;60.60;;;;;;5010763;28;20054;-37
2023/07/20 11:16:38;;;;;;;1.20;0.90;;;21.50;77.90;;;;;;5011477;28;20046;-38
2023/07/20 11:19:05;;;;;;;1.55;1.00;;;20.70;77.00;;;;;;5011336;28;20537;-40
2023/07/20 11:21:37;;;;;;;1.40;1.05;;;21.70;61.10;;;;;;5011579;28;20138;-40
2023/07/20 11:24:05;;;;;;;1.42;1.10;;;21.70;61.10;;;;;;5010995;28;20058;-35
2023/07/20 11:26:32;;;;;;;1.15;1.00;;;21.40;77.50;;;;;;5011570;28;20133;-32
2023/07/20 11:28:59;;;;;;;1.80;1.20;;;21.70;61.10;;;;;;5010698;28;20042;-37
2023/07/20 11:31:27;;;;;;;1.40;1.00;;;21.20;78.30;;;;;;5017029;28;20045;-32
2023/07/20 11:33:54;;;;;;;1.85;1.05;;;21.80;77.80;;;;;;5030421;28;20060;-33
2023/07/20 11:36:21;;;;;;;2.00;1.00;;;;;;;;;;5030397;28;20129;-35
2023/07/20 11:38:48;;;;;;;1.10;0.93;;;;;;;;;;5030920;28;20049;-33
2023/07/20 11:41:16;;;;;;;1.02;0.90;;;;;;;;;;5030333;28;20049;-37
2023/07/20 11:43:43;;;;;;;1.88;1.00;;;22.20;77.80;;;;;;5030670;28;20056;-32
2023/07/20 11:46:10;;;;;;;1.48;1.10;;;;;;;;;;5024806;28;20046;-34
2023/07/20 11:48:39;;;;;;;1.23;0.95;;;22.40;62.40;;;;;;5010730;28;20132;-32
2023/07/20 11:51:06;;;;;;;1.00;0.90;;;;;;;;;;5010858;28;20108;-33
2023/07/20 11:53:33;;;;;;;1.75;1.35;;;;;;;;;;5029404;28;20055;-36
2023/07/20 11:56:01;;;;;;;1.98;1.08;;;;;;;;;;5030663;28;20519;-38
2023/07/20 11:58:28;;;;;;;1.33;0.90;;;21.80;61.10;;;;;;5030614;28;20059;-35
2023/07/20 12:00:55;;;;;;;2.00;1.23;;;22.30;77.80;;;;;;5026652;28;20124;-34
2023/07/20 12:03:22;;;;;;;1.30;0.90;;;22.60;65.30;;;;;;5020816;28;20545;-32
2023/07/20 12:05:50;;;;;;;1.73;1.08;;;22.20;78.00;;;;;;5030498;28;20052;-32
2023/07/20 12:08:17;;;;;;;1.63;0.90;;;;;;;;;;5030097;28;20056;-33
2023/07/20 12:10:44;;;;;;;1.30;1.00;;;21.50;69.70;;;;;;5030489;28;20107;-32
2023/07/20 12:13:12;;;;;;;1.30;0.90;;;22.90;77.90;;;;;;5030059;28;20454;-32
2023/07/20 12:15:38;;;;;;;1.00;0.90;;;21.50;69.90;;;;;;5030240;28;20053;-34
2023/07/20 12:18:05;;;;;;;0.82;0.80;;;23.00;64.80;;;;;;5030134;28;20049;-32
2023/07/20 12:20:33;;;;;;;1.63;1.00;;;21.80;61.00;;;;;;5018851;28;20128;-36
2023/07/20 12:23:04;;;;;;;1.73;0.98;;;21.60;65.60;;;;;;5018835;28;20419;-35
2023/07/20 12:25:38;;;;;;;2.28;1.02;;;21.70;77.40;;;;;;5020240;28;20054;-32
2023/07/20 12:28:05;;;;;;;1.42;1.00;;;21.80;61.10;;;;;;5020649;28;20049;-36
2023/07/20 12:30:33;;;;;;;1.77;1.20;;;;;;;;;;5015609;28;20144;-37
2023/07/20 12:33:00;;;;;;;1.35;1.10;;;;;;;;;;5013775;28;20042;-35
2023/07/20 12:35:27;;;;;;;1.45;0.98;;;20.70;72.70;;;;;;5020027;28;20057;-32
2023/07/20 12:37:54;;;;;;;1.48;1.00;;;22.20;78.70;;;;;;5017651;28;20128;-33
2023/07/20 12:40:22;;;;;;;1.27;1.10;;;22.20;78.10;;;;;;5018453;28;20651;-32
2023/07/20 12:42:49;;;;;;;2.10;1.20;;;;;;;;;;5019414;28;20120;-36
2023/07/20 12:45:16;;;;;;;1.42;1.00;;;;;;;;;;5020171;28;20121;-33
2023/07/20 12:47:43;;;;;;;1.40;1.13;;;;;;;;;;5009885;28;20072;-36
2023/07/20 12:50:12;;;;;;;2.55;1.20;;;;;;;;;;5009203;28;20484;-33
2023/07/20 12:52:39;;;;;;;1.52;1.00;;;22.20;79.10;;;;;;5014084;28;20045;-33
2023/07/20 12:55:07;;;;;;;1.70;1.08;;;20.90;77.50;;;;;;5020166;28;20469;-32
2023/07/20 12:57:35;;;;;;;1.17;1.08;;;21.80;69.40;;;;;;5019814;28;20060;-33
2023/07/20 13:00:03;;;;;;;2.05;1.20;;;21.40;77.90;;;;;;5018477;28;20053;-32
2023/07/20 13:02:30;;;;;;;1.00;0.90;;;21.90;64.80;;;;;;5019219;28;20073;-35
2023/07/20 13:04:58;;;;;;;2.45;1.15;;;;;;;;;;5020155;28;20518;-36
2023/07/20 13:07:30;;;;;;;2.08;1.48;;;21.50;67.00;;;;;;5018483;28;20503;-34
2023/07/20 13:09:59;;;;;;;1.45;1.05;;;22.00;77.10;;;;;;5020039;28;20128;-32
2023/07/20 13:12:25;;;;;;;1.58;1.10;;;22.00;78.10;;;;;;5009134;28;20053;-32
2023/07/20 13:14:53;;;;;;;1.60;1.00;;;20.50;65.20;;;;;;5009847;28;20524;-36